Time;durP1;ratioP1;P1;durP2;ratioP2;P2;SDS_P1;SDS_P2;PMS_P1;PMS_P2;Temp;Humidity;BMP_temperature;BMP_pressure;BME280_temperature;BME280_humidity;BME280_pressure;Samples;Min_cycle;Max_cycle;Signal;HPM_P1;HPM_P2
2024/04/22 00:01:33;;;;;;;23.40;16.70;;;;;;;3.34;84.88;97175.66;105057;1258;98711;-82
2024/04/22 00:04:00;;;;;;;17.90;15.50;;;;;;;3.35;85.03;97173.23;104993;1258;98917;-84
2024/04/22 00:06:28;;;;;;;19.40;16.20;;;;;;;3.36;85.02;97178.09;104909;1257;97920;-83
2024/04/22 00:08:55;;;;;;;18.70;16.10;;;;;;;3.34;84.97;97182.44;104922;1256;97938;-83
2024/04/22 00:11:23;;;;;;;21.50;16.70;;;;;;;3.32;85.08;97180.86;104971;1257;97906;-84
2024/04/22 00:13:50;;;;;;;18.00;15.40;;;;;;;3.32;85.12;97177.83;104963;1259;97933;-83
2024/04/22 00:16:18;;;;;;;19.30;15.40;;;;;;;3.33;85.10;97176.66;104886;1261;97912;-80
2024/04/22 00:18:46;;;;;;;17.10;12.40;;;;;;;3.32;85.17;97176.52;104954;1254;99231;-80
2024/04/22 00:21:13;;;;;;;11.50;10.30;;;;;;;3.31;85.17;97175.30;104900;1259;98709;-80
2024/04/22 00:23:41;;;;;;;15.00;13.30;;;;;;;3.31;85.21;97171.98;104878;1258;97903;-80
2024/04/22 00:26:08;;;;;;;15.10;13.60;;;;;;;3.33;85.25;97172.12;105011;1259;97861;-80
2024/04/22 00:28:36;;;;;;;16.80;14.70;;;;;;;3.35;85.28;97169.69;104924;1267;98704;-80
2024/04/22 00:31:04;;;;;;;15.20;12.80;;;;;;;3.35;85.35;97168.92;104946;1257;97977;-77
2024/04/22 00:33:31;;;;;;;15.10;11.90;;;;;;;3.36;85.27;97170.42;104914;1260;107482;-77
2024/04/22 00:36:00;;;;;;;13.80;11.30;;;;;;;3.36;85.34;97165.79;104910;1257;97919;-77
2024/04/22 00:38:29;;;;;;;13.20;11.80;;;;;;;3.36;85.36;97164.59;105044;1257;98525;-77
2024/04/22 00:40:58;;;;;;;14.70;12.90;;;;;;;3.37;85.45;97162.14;104939;1257;103527;-77
2024/04/22 00:43:26;;;;;;;15.00;13.20;;;;;;;3.39;85.39;97158.86;104896;1254;100609;-77
2024/04/22 00:45:54;;;;;;;13.90;12.40;;;;;;;3.40;85.35;97162.15;104859;1257;100080;-82
2024/04/22 00:48:23;;;;;;;13.70;11.80;;;;;;;3.40;85.32;97162.08;104885;1257;97979;-83
2024/04/22 00:50:54;;;;;;;13.80;11.20;;;;;;;3.40;85.30;97161.55;104775;1260;98317;-83
2024/04/22 00:53:22;;;;;;;15.60;12.30;;;;;;;3.42;85.39;97157.81;105017;1257;103701;-81
2024/04/22 00:55:51;;;;;;;13.80;11.20;;;;;;;3.42;85.44;97156.14;104989;1257;101332;-80
2024/04/22 00:58:19;;;;;;;13.80;12.20;;;;;;;3.43;85.48;97152.57;104925;1276;100105;-79
2024/04/22 01:00:49;;;;;;;16.50;13.70;;;;;;;3.43;85.52;97148.04;104939;1258;99238;-83
2024/04/22 01:03:17;;;;;;;14.30;11.70;;;;;;;3.44;85.60;97149.60;104927;1256;98409;-84
2024/04/22 01:05:45;;;;;;;13.20;10.00;;;;;;;3.44;85.76;97145.66;104959;1265;103517;-83
2024/04/22 01:08:12;;;;;;;9.20;7.90;;;;;;;3.45;85.79;97143.42;104880;1266;101858;-83
2024/04/22 01:10:40;;;;;;;8.50;6.90;;;;;;;3.43;85.58;97147.16;104923;1257;99241;-83
2024/04/22 01:13:07;;;;;;;9.60;8.10;;;;;;;3.42;85.51;97147.16;104914;1267;97933;-83
2024/04/22 01:15:35;;;;;;;8.70;7.10;;;;;;;3.42;85.52;97148.14;105041;1258;98339;-75
2024/04/22 01:18:03;;;;;;;8.70;7.20;;;;;;;3.40;85.50;97148.62;104945;1253;102436;-75
2024/04/22 01:20:30;;;;;;;8.00;7.20;;;;;;;3.38;85.45;97149.90;104939;1257;100332;-74
2024/04/22 01:22:58;;;;;;;8.50;7.40;;;;;;;3.39;85.59;97150.31;104931;1259;98919;-75
2024/04/22 01:25:29;;;;;;;8.50;6.50;;;;;;;3.39;85.59;97149.09;105023;1271;97916;-75
2024/04/22 01:27:56;;;;;;;7.50;6.40;;;;;;;3.38;85.56;97150.59;104888;1270;98444;-75
2024/04/22 01:30:24;;;;;;;6.20;5.60;;;;;;;3.37;85.50;97151.67;104903;1259;102653;-74
2024/04/22 01:32:52;;;;;;;6.30;4.90;;;;;;;3.37;85.61;97150.95;104888;1259;101320;-77
2024/04/22 01:35:19;;;;;;;5.70;4.70;;;;;;;3.38;85.62;97151.70;104829;1267;98960;-76
2024/04/22 01:37:47;;;;;;;5.10;4.30;;;;;;;3.40;85.59;97152.37;104826;1259;97906;-77
2024/04/22 01:40:15;;;;;;;4.90;4.30;;;;;;;3.39;85.50;97151.38;104904;1254;98451;-76
2024/04/22 01:42:45;;;;;;;4.60;4.10;;;;;;;3.37;85.45;97151.80;104826;1259;103548;-77
2024/04/22 01:45:12;;;;;;;4.40;4.00;;;;;;;3.31;85.32;97153.85;104901;1258;97858;-77
2024/04/22 01:47:40;;;;;;;4.60;4.20;;;;;;;3.25;85.24;97154.35;104787;1259;97925;-75
2024/04/22 01:50:08;;;;;;;6.00;4.70;;;;;;;3.25;85.34;97148.98;104924;1253;98856;-74
2024/04/22 01:52:35;;;;;;;6.80;4.60;;;;;;;3.26;85.31;97148.00;104998;1257;98527;-75
2024/04/22 01:55:03;;;;;;;4.60;4.10;;;;;;;3.26;85.30;97151.16;104965;1260;103619;-74
2024/04/22 01:57:30;;;;;;;5.90;4.80;;;;;;;3.25;85.44;97152.59;104613;1261;100458;-74
2024/04/22 01:59:58;;;;;;;4.70;4.10;;;;;;;3.23;85.48;97150.45;104851;1258;97926;-74
2024/04/22 02:02:25;;;;;;;5.00;4.30;;;;;;;3.22;85.46;97147.52;104763;1254;99246;-75
2024/04/22 02:04:52;;;;;;;4.30;3.80;;;;;;;3.19;85.47;97145.58;104894;1268;97980;-75
2024/04/22 02:07:20;;;;;;;4.50;4.00;;;;;;;3.16;85.34;97145.55;104871;1266;97923;-74
2024/04/22 02:09:47;;;;;;;4.60;3.60;;;;;;;3.16;85.51;97145.55;104869;1257;98012;-75
2024/04/22 02:12:15;;;;;;;5.50;3.80;;;;;;;3.17;85.43;97147.95;104910;1257;97922;-75
2024/04/22 02:14:43;;;;;;;3.50;3.20;;;;;;;3.14;85.39;97142.81;104858;1254;97941;-75
2024/04/22 02:17:10;;;;;;;3.90;3.30;;;;;;;3.13;85.33;97144.85;104911;1257;99500;-77
2024/04/22 02:19:38;;;;;;;3.40;3.00;;;;;;;3.12;85.36;97146.23;104921;1260;97993;-77
2024/04/22 02:22:05;;;;;;;6.30;3.20;;;;;;;3.10;85.40;97149.46;104985;1267;97913;-78
2024/04/22 02:24:32;;;;;;;3.60;3.20;;;;;;;3.09;85.25;97147.05;104903;1257;97913;-77
2024/04/22 02:27:00;;;;;;;5.00;3.50;;;;;;;3.08;85.23;97150.36;104897;1257;98438;-77
2024/04/22 02:29:27;;;;;;;4.60;3.80;;;;;;;3.05;85.16;97154.61;105192;1259;97913;-77
2024/04/22 02:31:55;;;;;;;4.20;3.30;;;;;;;3.04;85.18;97154.98;104888;1256;97993;-75
2024/04/22 02:34:23;;;;;;;3.80;3.10;;;;;;;3.03;85.23;97155.75;104879;1253;97984;-74
2024/04/22 02:36:51;;;;;;;4.00;3.30;;;;;;;3.01;85.16;97153.20;104861;1259;99906;-74
2024/04/22 02:39:19;;;;;;;3.50;3.20;;;;;;;2.96;85.10;97153.52;104854;1268;97926;-77
2024/04/22 02:41:46;;;;;;;3.60;3.30;;;;;;;2.95;84.99;97150.66;104916;1258;97984;-77
2024/04/22 02:44:14;;;;;;;4.70;3.50;;;;;;;2.94;84.88;97151.29;104878;1256;97992;-77
2024/04/22 02:46:41;;;;;;;3.40;3.10;;;;;;;2.93;85.01;97151.95;104948;1253;97900;-77
2024/04/22 02:49:08;;;;;;;3.80;3.30;;;;;;;2.91;84.98;97153.35;105009;1258;97916;-77
2024/04/22 02:51:36;;;;;;;3.90;3.40;;;;;;;2.84;84.96;97152.51;104965;1257;99195;-77
2024/04/22 02:54:03;;;;;;;3.10;2.80;;;;;;;2.80;85.04;97148.30;104899;1276;97912;-77
2024/04/22 02:56:31;;;;;;;3.50;3.00;;;;;;;2.80;85.01;97152.44;104941;1257;97916;-77
2024/04/22 02:58:58;;;;;;;3.10;2.20;;;;;;;2.83;85.13;97157.60;104906;1258;97899;-77
2024/04/22 03:01:26;;;;;;;2.80;2.60;;;;;;;2.84;84.97;97156.48;104819;1258;98517;-77
2024/04/22 03:03:53;;;;;;;2.80;2.50;;;;;;;2.82;84.91;97159.86;104885;1257;98328;-76
2024/04/22 03:06:21;;;;;;;2.80;2.50;;;;;;;2.81;84.89;97157.84;104955;1257;97986;-76
2024/04/22 03:08:51;;;;;;;4.00;3.00;;;;;;;2.81;84.89;97157.70;104963;1258;97920;-74
2024/04/22 03:11:19;;;;;;;5.10;3.10;;;;;;;2.81;84.95;97158.94;104801;1259;100315;-74
2024/04/22 03:13:46;;;;;;;4.40;3.10;;;;;;;2.81;84.95;97160.90;104910;1271;100184;-74
2024/04/22 03:16:14;;;;;;;3.90;2.90;;;;;;;2.80;84.83;97158.01;104914;1259;97906;-77
2024/04/22 03:18:47;;;;;;;4.40;2.80;;;;;;;2.82;84.85;97157.08;104968;1257;99314;-78
2024/04/22 03:21:15;;;;;;;3.60;2.60;;;;;;;2.78;84.65;97161.02;104947;1256;103551;-77
2024/04/22 03:23:42;;;;;;;2.80;2.50;;;;;;;2.73;84.34;97158.36;104806;1259;100450;-77
2024/04/22 03:26:11;;;;;;;2.70;2.20;;;;;;;2.71;84.27;97159.66;104858;1260;99116;-77
2024/04/22 03:28:39;;;;;;;2.60;2.40;;;;;;;2.71;84.33;97161.79;104808;1254;97880;-77
2024/04/22 03:31:06;;;;;;;3.00;2.70;;;;;;;2.71;84.39;97160.88;104894;1256;97872;-84
2024/04/22 03:33:34;;;;;;;3.00;2.70;;;;;;;2.71;84.39;97162.35;104846;1257;99123;-84
2024/04/22 03:36:02;;;;;;;5.40;3.20;;;;;;;2.72;84.33;97161.42;104828;1259;98123;-84
2024/04/22 03:38:29;;;;;;;4.80;3.50;;;;;;;2.72;84.46;97164.26;104898;1257;99995;-83
2024/04/22 03:40:57;;;;;;;5.60;4.00;;;;;;;2.77;84.55;97161.38;104865;1261;98020;-83
2024/04/22 03:43:25;;;;;;;3.70;3.10;;;;;;;2.79;84.57;97168.85;104925;1258;98411;-83
2024/04/22 03:51:19;;;;;;;12.30;6.60;;;;;;;2.68;83.92;97170.02;104898;1255;99013;-84
2024/04/22 03:53:47;;;;;;;12.00;7.00;;;;;;;2.62;83.82;97173.66;104854;1256;97989;-84
2024/04/22 03:56:14;;;;;;;11.40;5.80;;;;;;;2.58;83.92;97177.11;104890;1253;98358;-84
2024/04/22 03:58:42;;;;;;;9.70;5.70;;;;;;;2.55;83.90;97176.91;104852;1268;97945;-84
2024/04/22 04:01:09;;;;;;;5.80;4.50;;;;;;;2.53;84.02;97179.36;104813;1254;99116;-74
2024/04/22 04:03:37;;;;;;;8.50;4.90;;;;;;;2.55;84.06;97180.84;104747;1259;98822;-74
2024/04/22 04:06:04;;;;;;;5.10;4.20;;;;;;;2.55;84.09;97179.88;104934;1258;97907;-85
2024/04/22 04:08:32;;;;;;;8.40;4.70;;;;;;;2.55;84.20;97181.86;104886;1258;98419;-84
2024/04/22 04:11:04;;;;;;;6.50;5.30;;;;;;;2.57;84.32;97183.30;104933;1253;98855;-84
2024/04/22 04:13:32;;;;;;;6.70;4.50;;;;;;;2.59;84.44;97185.21;104882;1261;101913;-84
2024/04/22 04:16:00;;;;;;;5.70;4.30;;;;;;;2.60;84.49;97182.77;104844;1259;97917;-83
2024/04/22 04:18:28;;;;;;;5.60;4.50;;;;;;;2.61;84.54;97186.91;104825;1258;97897;-84
2024/04/22 04:20:55;;;;;;;6.30;4.60;;;;;;;2.63;84.56;97187.29;104893;1253;98362;-84
2024/04/22 04:23:23;;;;;;;9.30;5.90;;;;;;;2.65;84.62;97189.14;104889;1258;97909;-83
2024/04/22 04:25:50;;;;;;;4.40;3.90;;;;;;;2.60;84.28;97192.54;104892;1257;97919;-83
2024/04/22 04:28:18;;;;;;;4.20;3.80;;;;;;;2.54;84.12;97194.42;104844;1259;99074;-83
2024/04/22 04:30:57;;;;;;;4.50;3.80;;;;;;;2.58;84.18;97197.90;104855;1258;97904;-83
2024/04/22 04:33:26;;;;;;;4.50;4.10;;;;;;;2.61;84.24;97203.27;104805;1258;98543;-84
2024/04/22 04:36:09;;;;;;;6.10;4.90;;;;;;;2.63;84.27;97204.34;104922;1259;103659;-83
2024/04/22 04:38:37;;;;;;;6.80;5.30;;;;;;;2.63;84.14;97207.17;104846;1258;100577;-84
2024/04/22 04:41:05;;;;;;;6.30;5.60;;;;;;;2.62;84.12;97212.10;104766;1260;99942;-84
2024/04/22 04:43:33;;;;;;;9.40;7.20;;;;;;;2.60;84.16;97214.25;104888;1254;98050;-84
2024/04/22 04:46:01;;;;;;;10.00;6.90;;;;;;;2.56;84.11;97210.52;104858;1259;98817;-81
2024/04/22 04:48:29;;;;;;;6.90;6.20;;;;;;;2.54;84.05;97210.52;104876;1258;102743;-80
2024/04/22 04:50:56;;;;;;;7.50;6.60;;;;;;;2.53;84.08;97215.14;104991;1254;100494;-80
2024/04/22 04:53:24;;;;;;;10.00;6.60;;;;;;;2.55;84.06;97217.41;104887;1257;99157;-80
2024/04/22 04:55:51;;;;;;;8.00;6.60;;;;;;;2.59;83.99;97214.48;104943;1257;97929;-80
2024/04/22 04:58:19;;;;;;;7.90;6.70;;;;;;;2.59;83.98;97217.15;104928;1254;97912;-80
2024/04/22 05:00:46;;;;;;;6.40;5.60;;;;;;;2.58;83.85;97221.75;104883;1258;97951;-80
2024/04/22 05:03:14;;;;;;;6.50;5.90;;;;;;;2.59;83.65;97219.45;104873;1259;97911;-79
2024/04/22 05:05:41;;;;;;;6.80;6.10;;;;;;;2.58;83.43;97225.11;104879;1257;98719;-80
2024/04/22 05:08:09;;;;;;;8.10;7.00;;;;;;;2.57;83.57;97230.37;104889;1256;98065;-80
2024/04/22 05:10:37;;;;;;;9.40;7.60;;;;;;;2.59;83.82;97231.95;105005;1257;97915;-80
2024/04/22 05:13:05;;;;;;;7.30;6.50;;;;;;;2.60;83.96;97233.75;104890;1257;103531;-80
2024/04/22 05:15:32;;;;;;;7.20;6.40;;;;;;;2.62;84.10;97242.81;104945;1257;98846;-77
2024/04/22 05:18:00;;;;;;;5.80;5.00;;;;;;;2.58;83.96;97240.54;104945;1253;97922;-77
2024/04/22 05:20:29;;;;;;;5.30;4.80;;;;;;;2.58;83.71;97240.90;104877;1265;97906;-76
2024/04/22 05:22:58;;;;;;;6.90;6.20;;;;;;;2.62;83.95;97243.28;104840;1259;98451;-77
2024/04/22 05:25:25;;;;;;;11.10;8.90;;;;;;;2.67;84.03;97244.66;104886;1257;103463;-80
2024/04/22 05:27:54;;;;;;;13.70;10.60;;;;;;;2.68;84.01;97247.05;104859;1254;98828;-81
2024/04/22 05:30:21;;;;;;;15.20;11.80;;;;;;;2.69;83.94;97251.59;104972;1258;98743;-81
2024/04/22 05:32:49;;;;;;;11.90;10.60;;;;;;;2.71;83.90;97255.87;104897;1253;98539;-81
2024/04/22 05:38:02;;;;;;;11.40;9.20;;;;;;;2.72;83.67;97260.56;104882;1261;103610;-81
2024/04/22 05:40:30;;;;;;;14.30;10.30;;;;;;;2.69;83.57;97261.32;104866;1259;100334;-81
2024/04/22 05:42:57;;;;;;;16.20;10.00;;;;;;;2.68;83.52;97262.55;104862;1260;97933;-81
2024/04/22 05:45:25;;;;;;;13.80;9.80;;;;;;;2.68;83.53;97265.23;104828;1259;97957;-77
2024/04/22 05:47:53;;;;;;;14.20;10.40;;;;;;;2.64;83.48;97263.66;104872;1253;98441;-81
2024/04/22 05:50:20;;;;;;;28.70;25.10;;;;;;;2.63;83.48;97264.70;104859;1259;103655;-80
2024/04/22 05:52:48;;;;;;;32.50;29.00;;;;;;;2.64;83.42;97266.43;104866;1259;99237;-81
2024/04/22 05:55:15;;;;;;;19.70;17.60;;;;;;;2.63;83.27;97269.89;104862;1259;97928;-80
2024/04/22 05:57:43;;;;;;;13.80;12.40;;;;;;;2.60;83.24;97275.02;104765;1259;155030;-80
2024/04/22 06:00:11;;;;;;;14.30;10.30;;;;;;;2.57;83.27;97278.46;104920;1257;97932;-80
2024/04/22 06:02:38;;;;;;;10.20;9.10;;;;;;;2.52;83.23;97280.04;104910;1258;103721;-83
2024/04/22 06:05:06;;;;;;;12.60;10.00;;;;;;;2.50;83.18;97286.50;104817;1272;101362;-82
2024/04/22 06:07:34;;;;;;;10.70;9.60;;;;;;;2.48;83.15;97286.73;104818;1257;99686;-83
2024/04/22 06:10:01;;;;;;;12.60;10.00;;;;;;;2.47;83.10;97289.31;104938;1259;97987;-83
2024/04/22 06:12:29;;;;;;;11.40;9.10;;;;;;;2.47;83.10;97291.25;104905;1254;98202;-83
2024/04/22 06:14:56;;;;;;;12.40;11.10;;;;;;;2.46;83.12;97297.27;104935;1259;103401;-83
2024/04/22 06:17:24;;;;;;;17.70;14.50;;;;;;;2.44;83.13;97296.37;104871;1270;97928;-75
2024/04/22 06:19:51;;;;;;;17.20;13.90;;;;;;;2.42;83.07;97301.27;104868;1270;99923;-77
2024/04/22 06:22:19;;;;;;;16.90;15.10;;;;;;;2.39;83.12;97305.33;104854;1259;97935;-77
2024/04/22 06:24:47;;;;;;;15.50;12.30;;;;;;;2.36;83.07;97305.41;104879;1266;97904;-77
2024/04/22 06:27:15;;;;;;;12.80;10.70;;;;;;;2.34;82.93;97306.33;104908;1257;103686;-76
2024/04/22 06:29:42;;;;;;;13.60;11.50;;;;;;;2.30;82.87;97306.42;104957;1257;101417;-77
2024/04/22 06:32:09;;;;;;;15.00;11.40;;;;;;;2.27;82.90;97310.65;104936;1257;97923;-74
2024/04/22 06:34:37;;;;;;;12.50;10.10;;;;;;;2.27;82.99;97311.61;104862;1257;98873;-74
2024/04/22 06:37:05;;;;;;;11.50;10.20;;;;;;;2.25;83.01;97317.83;104883;1254;98436;-74
2024/04/22 06:39:32;;;;;;;14.30;11.20;;;;;;;2.26;83.26;97317.34;104930;1257;102731;-83
2024/04/22 06:42:00;;;;;;;12.50;10.60;;;;;;;2.30;83.36;97317.44;104935;1258;98018;-82
2024/04/22 06:44:27;;;;;;;12.30;10.40;;;;;;;2.33;83.44;97321.91;104930;1259;98799;-82
2024/04/22 06:46:55;;;;;;;12.70;10.70;;;;;;;2.35;83.35;97326.48;104965;1257;97997;-80
2024/04/22 06:49:23;;;;;;;19.70;15.40;;;;;;;2.35;83.37;97331.84;104935;1257;98457;-80
2024/04/22 06:51:50;;;;;;;14.90;12.80;;;;;;;2.29;83.25;97331.63;104962;1259;97948;-80
2024/04/22 06:54:18;;;;;;;16.20;12.90;;;;;;;2.27;83.27;97337.98;104904;1260;97928;-80
2024/04/22 06:56:45;;;;;;;17.20;14.20;;;;;;;2.28;83.37;97342.02;104982;1259;98171;-80
2024/04/22 06:59:15;;;;;;;16.20;13.30;;;;;;;2.30;83.27;97347.41;104951;1253;97944;-77
2024/04/22 07:01:43;;;;;;;16.20;13.50;;;;;;;2.33;83.35;97345.85;104946;1268;98428;-77
2024/04/22 07:04:11;;;;;;;25.40;15.80;;;;;;;2.38;83.32;97348.41;104850;1259;97929;-78
2024/04/22 07:06:39;;;;;;;24.70;15.40;;;;;;;2.39;83.12;97355.05;104916;1259;101236;-77
2024/04/22 07:09:10;;;;;;;16.70;13.20;;;;;;;2.41;83.16;97356.09;104865;1259;100097;-77
2024/04/22 07:11:38;;;;;;;15.00;11.30;;;;;;;2.43;83.09;97353.88;104856;1257;97990;-77
2024/04/22 07:14:10;;;;;;;12.00;9.50;;;;;;;2.46;83.17;97359.58;104841;1257;99231;-77
2024/04/22 07:16:41;;;;;;;8.90;7.80;;;;;;;2.53;83.32;97362.73;104957;1257;111227;-81
2024/04/22 07:19:09;;;;;;;8.40;7.50;;;;;;;2.58;83.11;97365.45;104950;1258;101290;-80
2024/04/22 07:21:36;;;;;;;12.00;10.20;;;;;;;2.62;83.07;97370.73;104852;1259;97926;-80
2024/04/22 07:24:04;;;;;;;10.60;9.50;;;;;;;2.67;83.08;97371.92;104839;1258;97983;-81
2024/04/22 07:26:31;;;;;;;11.90;8.40;;;;;;;2.71;82.82;97378.41;104874;1270;98505;-80
2024/04/22 07:28:59;;;;;;;11.70;9.80;;;;;;;2.73;82.68;97381.98;104895;1257;97888;-81
2024/04/22 07:31:27;;;;;;;11.00;9.00;;;;;;;2.75;82.66;97386.16;104977;1254;100505;-77
2024/04/22 07:33:54;;;;;;;12.00;9.40;;;;;;;2.77;82.66;97384.56;104838;1257;99899;-77
2024/04/22 07:36:36;;;;;;;11.40;9.70;;;;;;;2.77;82.58;97387.86;104806;1258;98743;-76
2024/04/22 07:39:06;;;;;;;11.00;9.70;;;;;;;2.72;82.39;97387.58;104871;1258;97909;-77
2024/04/22 07:41:34;;;;;;;9.50;8.20;;;;;;;2.66;82.37;97393.69;104914;1259;103846;-77
2024/04/22 07:44:02;;;;;;;10.00;7.70;;;;;;;2.66;82.36;97397.23;104980;1259;100335;-75
2024/04/22 07:46:31;;;;;;;9.90;8.20;;;;;;;2.69;82.45;97398.75;104888;1260;100128;-76
2024/04/22 07:48:58;;;;;;;9.50;7.70;;;;;;;2.70;82.38;97398.83;104881;1258;97942;-76
2024/04/22 07:51:26;;;;;;;9.70;8.40;;;;;;;2.72;82.31;97401.66;104887;1253;97993;-76
2024/04/22 07:53:53;;;;;;;13.20;9.60;;;;;;;2.74;82.38;97405.17;104736;1259;98744;-75
2024/04/22 07:56:22;;;;;;;12.50;9.20;;;;;;;2.73;82.25;97408.97;104827;1259;100368;-73
2024/04/22 07:58:50;;;;;;;10.40;8.20;;;;;;;2.73;82.23;97407.34;104871;1270;98573;-73
2024/04/22 08:01:17;;;;;;;11.30;9.10;;;;;;;2.74;82.21;97407.10;104786;1260;97884;-74
2024/04/22 08:03:45;;;;;;;11.00;8.20;;;;;;;2.73;82.14;97408.30;104938;1259;97913;-73
2024/04/22 08:06:19;;;;;;;9.20;6.90;;;;;;;2.72;82.03;97411.54;104974;1269;102394;-73
2024/04/22 08:08:46;;;;;;;9.70;7.10;;;;;;;2.70;82.03;97416.05;104845;1258;99325;-73
2024/04/22 08:11:14;;;;;;;9.10;7.20;;;;;;;2.71;82.14;97419.09;104919;1254;100050;-74
2024/04/22 08:13:41;;;;;;;8.00;6.80;;;;;;;2.73;82.00;97422.50;104866;1259;98006;-74
2024/04/22 08:16:09;;;;;;;7.70;6.70;;;;;;;2.74;81.88;97422.54;104894;1258;99115;-82
2024/04/22 08:18:36;;;;;;;8.80;7.30;;;;;;;2.72;81.73;97421.13;104828;1259;97932;-82
2024/04/22 08:21:07;;;;;;;7.60;6.40;;;;;;;2.70;81.67;97421.35;104913;1267;98726;-82
2024/04/22 08:23:36;;;;;;;16.80;11.00;;;;;;;2.73;81.58;97424.96;104848;1257;100451;-82
2024/04/22 08:26:03;;;;;;;12.60;9.70;;;;;;;2.78;81.78;97425.31;104886;1254;98482;-83
2024/04/22 08:28:31;;;;;;;12.80;9.30;;;;;;;2.83;81.84;97425.98;104900;1259;99151;-83
2024/04/22 08:31:07;;;;;;;11.10;9.60;;;;;;;2.85;81.92;97430.80;104872;1270;102718;-83
2024/04/22 08:33:34;;;;;;;9.00;7.30;;;;;;;2.92;81.96;97431.84;104976;1254;101653;-83
2024/04/22 08:36:02;;;;;;;7.70;6.30;;;;;;;2.99;81.71;97431.10;104924;1258;99122;-82
2024/04/22 08:38:30;;;;;;;9.50;6.80;;;;;;;2.98;81.54;97431.66;104883;1254;97949;-82
2024/04/22 08:40:57;;;;;;;8.60;6.50;;;;;;;3.05;81.68;97429.87;104882;1259;98325;-82
2024/04/22 08:43:25;;;;;;;8.00;5.80;;;;;;;3.16;81.76;97429.39;104907;1259;97911;-82
2024/04/22 08:45:52;;;;;;;6.00;5.00;;;;;;;3.30;81.77;97430.45;104866;1259;99242;-82
2024/04/22 08:48:20;;;;;;;8.00;5.80;;;;;;;3.37;81.40;97433.39;104912;1260;98796;-82
2024/04/22 08:50:50;;;;;;;8.30;6.10;;;;;;;3.43;81.30;97432.98;104874;1260;97989;-82
2024/04/22 08:53:17;;;;;;;18.50;14.90;;;;;;;3.45;81.29;97433.69;104926;1257;99120;-81
2024/04/22 08:55:45;;;;;;;8.30;7.40;;;;;;;3.46;81.27;97438.59;104895;1259;97864;-82
2024/04/22 08:58:12;;;;;;;12.20;6.90;;;;;;;3.46;80.92;97437.54;104872;1269;99949;-83
2024/04/22 09:00:40;;;;;;;8.90;6.20;;;;;;;3.49;80.78;97438.98;104914;1260;99407;-79
2024/04/22 09:03:08;;;;;;;9.10;6.80;;;;;;;3.53;80.72;97442.46;104865;1260;98634;-79
2024/04/22 09:05:36;;;;;;;11.00;8.30;;;;;;;3.57;80.81;97447.55;104920;1259;98459;-79
2024/04/22 09:08:06;;;;;;;12.20;8.80;;;;;;;3.59;80.67;97448.38;104964;1259;103591;-79
2024/04/22 09:10:36;;;;;;;11.20;8.30;;;;;;;3.59;80.54;97449.48;104943;1258;100560;-80
2024/04/22 09:13:04;;;;;;;10.20;8.20;;;;;;;3.61;80.41;97445.18;104829;1259;99234;-78
2024/04/22 09:15:32;;;;;;;14.80;8.60;;;;;;;3.65;80.43;97445.98;104849;1253;98001;-81
2024/04/22 09:17:59;;;;;;;10.60;8.50;;;;;;;3.66;80.18;97449.38;104879;1259;99861;-83
2024/04/22 09:20:30;;;;;;;12.30;9.50;;;;;;;3.63;80.20;97453.81;104809;1259;98758;-82
2024/04/22 09:22:57;;;;;;;14.00;10.60;;;;;;;3.60;80.27;97456.13;104905;1259;100525;-83
2024/04/22 09:25:26;;;;;;;14.30;10.50;;;;;;;3.60;80.29;97455.16;104887;1257;97932;-83
2024/04/22 09:27:54;;;;;;;11.30;8.90;;;;;;;3.67;80.54;97459.27;104991;1260;97911;-83
2024/04/22 09:30:23;;;;;;;14.10;9.50;;;;;;;3.75;80.41;97459.38;104848;1254;98413;-83
2024/04/22 09:32:59;;;;;;;10.50;7.70;;;;;;;3.82;80.41;97457.59;104799;1270;102581;-79
2024/04/22 09:35:27;;;;;;;10.70;8.50;;;;;;;3.90;80.16;97460.05;104960;1259;101418;-80
2024/04/22 09:37:56;;;;;;;11.30;7.60;;;;;;;4.01;80.12;97456.77;104877;1258;99314;-80
2024/04/22 09:40:26;;;;;;;13.00;9.40;;;;;;;4.07;79.94;97453.45;104940;1259;98114;-80
2024/04/22 09:42:55;;;;;;;9.90;6.80;;;;;;;4.10;79.98;97456.48;104962;1259;99262;-80
2024/04/22 09:45:22;;;;;;;12.00;7.70;;;;;;;4.08;79.45;97458.84;104897;1259;103595;-79
2024/04/22 09:47:51;;;;;;;11.10;8.50;;;;;;;4.07;79.39;97462.64;104932;1260;101498;-76
2024/04/22 09:50:19;;;;;;;14.70;10.20;;;;;;;4.08;79.26;97462.94;104918;1259;99622;-76
2024/04/22 09:52:48;;;;;;;17.10;11.70;;;;;;;4.06;79.42;97466.30;104837;1259;99257;-76
2024/04/22 09:55:16;;;;;;;15.60;10.70;;;;;;;4.06;79.19;97466.55;104908;1259;98467;-76
2024/04/22 09:57:45;;;;;;;18.20;11.80;;;;;;;4.05;79.10;97466.01;104866;1259;103607;-76
2024/04/22 10:00:15;;;;;;;13.50;10.30;;;;;;;4.05;79.02;97465.08;104904;1269;101471;-75
2024/04/22 10:02:43;;;;;;;16.00;10.70;;;;;;;4.03;78.73;97466.30;104846;1259;99679;-74
2024/04/22 10:05:13;;;;;;;32.00;20.60;;;;;;;3.99;78.53;97470.29;104892;1259;97906;-74
2024/04/22 10:07:41;;;;;;;60.20;37.20;;;;;;;3.99;78.43;97468.34;104926;1272;99225;-74
2024/04/22 10:10:09;;;;;;;34.50;23.40;;;;;;;4.03;78.59;97465.30;104825;1259;102297;-83
2024/04/22 10:12:37;;;;;;;16.70;13.40;;;;;;;4.06;78.39;97464.04;104887;1259;100419;-82
2024/04/22 10:15:12;;;;;;;16.10;12.10;;;;;;;4.08;78.29;97463.23;104762;1259;98015;-82
2024/04/22 10:17:41;;;;;;;16.10;11.50;;;;;;;4.16;78.38;97463.39;104957;1266;98831;-82
2024/04/22 10:20:10;;;;;;;16.60;10.90;;;;;;;4.22;78.43;97465.77;104972;1259;99197;-83
2024/04/22 10:22:41;;;;;;;17.30;11.00;;;;;;;4.27;78.37;97461.52;104942;1259;103773;-82
2024/04/22 10:25:09;;;;;;;14.80;11.30;;;;;;;4.33;78.30;97463.66;104924;1270;100457;-82
2024/04/22 10:27:37;;;;;;;15.30;10.70;;;;;;;4.34;78.19;97460.85;104970;1260;99995;-82
2024/04/22 10:30:06;;;;;;;16.50;10.90;;;;;;;4.43;78.10;97463.42;104944;1257;98996;-82
2024/04/22 10:32:34;;;;;;;16.70;12.20;;;;;;;4.56;78.14;97464.13;104833;1259;98525;-83
2024/04/22 10:35:01;;;;;;;14.70;11.60;;;;;;;4.61;78.16;97462.96;104886;1258;97919;-83
2024/04/22 10:37:29;;;;;;;13.80;10.20;;;;;;;4.70;77.90;97464.27;105004;1260;101481;-83
2024/04/22 10:39:56;;;;;;;16.50;10.40;;;;;;;4.80;77.57;97461.56;104865;1254;97992;-83
2024/04/22 10:42:28;;;;;;;14.60;10.90;;;;;;;4.85;77.13;97465.88;104916;1254;97978;-83
2024/04/22 10:44:55;;;;;;;14.70;10.50;;;;;;;4.89;77.21;97465.92;104904;1259;97961;-83
2024/04/22 10:47:23;;;;;;;12.50;8.50;;;;;;;4.92;77.44;97473.05;104989;1266;102678;-80
2024/04/22 10:49:51;;;;;;;8.40;7.40;;;;;;;4.74;77.02;97469.89;104927;1253;101336;-76
2024/04/22 10:52:18;;;;;;;9.10;7.60;;;;;;;4.37;76.63;97469.48;104909;1258;99881;-76
2024/04/22 10:54:46;;;;;;;10.40;8.50;;;;;;;4.07;76.84;97476.16;104906;1259;98019;-76
2024/04/22 10:57:13;;;;;;;12.70;9.20;;;;;;;3.92;77.30;97476.04;104898;1257;97913;-76
2024/04/22 10:59:41;;;;;;;11.50;8.70;;;;;;;3.90;77.80;97474.46;104942;1254;98416;-75
2024/04/22 11:02:10;;;;;;;10.70;8.70;;;;;;;3.95;78.02;97470.33;104923;1258;101474;-74
2024/04/22 11:04:38;;;;;;;12.10;10.30;;;;;;;4.06;78.33;97475.65;104934;1259;99988;-74
2024/04/22 11:07:06;;;;;;;11.20;9.50;;;;;;;4.19;78.39;97472.89;104834;1260;98010;-74
2024/04/22 11:09:37;;;;;;;13.00;8.70;;;;;;;4.29;78.07;97466.83;104858;1259;97980;-74
2024/04/22 11:12:05;;;;;;;12.80;9.40;;;;;;;4.41;77.96;97464.54;104949;1259;103716;-74
2024/04/22 11:14:33;;;;;;;12.20;8.90;;;;;;;4.55;77.83;97464.42;104924;1260;101467;-74
2024/04/22 11:17:00;;;;;;;12.60;10.00;;;;;;;4.68;77.93;97465.10;104922;1259;98975;-74
2024/04/22 11:19:28;;;;;;;15.30;10.50;;;;;;;4.84;78.23;97465.54;104949;1259;97913;-73
2024/04/22 11:21:55;;;;;;;16.20;11.90;;;;;;;4.96;78.13;97464.89;105000;1260;98246;-74
2024/04/22 11:24:23;;;;;;;13.00;10.40;;;;;;;5.09;78.45;97468.02;105024;1259;97932;-74
2024/04/22 11:26:50;;;;;;;16.30;9.80;;;;;;;5.27;78.19;97467.32;104950;1259;99225;-73
2024/04/22 11:29:18;;;;;;;13.20;9.60;;;;;;;5.47;77.91;97470.05;104961;1260;100112;-74
2024/04/22 11:31:46;;;;;;;11.40;8.90;;;;;;;5.51;77.64;97470.66;104895;1259;97928;-76
2024/04/22 11:34:13;;;;;;;10.90;8.80;;;;;;;5.48;77.05;97471.41;104941;1266;98427;-76
2024/04/22 11:36:41;;;;;;;10.40;8.30;;;;;;;5.48;77.08;97472.41;104761;1254;97898;-76